createdAt,value
2019-04-27T00:01:31.448Z,12.69
2019-04-27T00:04:05.691Z,12.70
2019-04-27T00:06:38.263Z,12.67
2019-04-27T00:09:22.832Z,12.48
2019-04-27T00:11:57.074Z,12.54
2019-04-27T00:14:23.998Z,12.57
2019-04-27T00:17:10.839Z,12.54
2019-04-27T00:19:51.117Z,12.68
2019-04-27T00:22:19.562Z,12.64
2019-04-27T00:24:46.224Z,12.58
2019-04-27T00:27:13.385Z,12.48
2019-04-27T00:29:40.256Z,12.41
2019-04-27T00:32:07.062Z,12.36
2019-04-27T00:34:34.622Z,12.32
2019-04-27T00:37:20.099Z,12.25
2019-04-27T00:39:51.369Z,12.24
2019-04-27T00:42:19.218Z,12.23
2019-04-27T00:44:45.901Z,12.22
2019-04-27T00:47:13.779Z,12.18
2019-04-27T00:49:40.702Z,12.15
2019-04-27T00:52:07.353Z,12.22
2019-04-27T00:54:38.383Z,12.29
2019-04-27T00:57:13.008Z,12.28
2019-04-27T00:59:56.661Z,12.32
2019-04-27T01:02:35.430Z,12.31
2019-04-27T01:05:05.929Z,12.35
2019-04-27T01:07:33.375Z,12.32
2019-04-27T01:10:00.532Z,12.35
2019-04-27T01:12:30.991Z,12.35
2019-04-27T01:14:58.963Z,12.25
2019-04-27T01:17:25.620Z,12.21
2019-04-27T01:19:52.281Z,12.18
2019-04-27T01:22:18.959Z,12.21
2019-04-27T01:24:45.681Z,12.24
2019-04-27T01:27:25.947Z,12.24
2019-04-27T01:29:54.363Z,12.22
2019-04-27T01:32:20.960Z,12.26
2019-04-27T01:34:49.296Z,12.30
2019-04-27T01:37:17.179Z,12.28
2019-04-27T01:39:43.749Z,12.30
2019-04-27T01:42:10.735Z,12.31
2019-04-27T01:44:39.350Z,12.28
2019-04-27T01:47:06.212Z,12.32
2019-04-27T01:49:33.114Z,12.33
2019-04-27T01:51:59.875Z,12.35
2019-04-27T01:54:29.063Z,12.33
2019-04-27T01:56:55.833Z,12.33
2019-04-27T01:59:22.466Z,12.30
2019-04-27T02:02:08.774Z,12.05
2019-04-27T02:04:39.540Z,12.05
2019-04-27T02:07:09.092Z,12.08
2019-04-27T02:09:38.679Z,11.83
2019-04-27T02:12:05.711Z,11.88
2019-04-27T02:14:32.461Z,11.83
2019-04-27T02:16:59.574Z,11.83
2019-04-27T02:19:26.699Z,11.83
2019-04-27T02:21:53.401Z,11.81
2019-04-27T02:24:20.177Z,11.77
2019-04-27T02:26:46.863Z,11.71
2019-04-27T02:29:25.855Z,11.64
2019-04-27T02:32:11.419Z,11.62
2019-04-27T02:34:46.343Z,11.60
2019-04-27T02:37:13.037Z,11.57
2019-04-27T02:39:41.525Z,11.53
2019-04-27T02:42:10.153Z,11.45
2019-04-27T02:44:40.456Z,11.39
2019-04-27T02:47:09.984Z,11.35
2019-04-27T02:49:36.202Z,11.33
2019-04-27T02:52:09.398Z,11.32
2019-04-27T02:54:36.355Z,11.30
2019-04-27T02:57:03.133Z,11.28
2019-04-27T02:59:30.501Z,11.19
2019-04-27T03:02:04.994Z,11.12
2019-04-27T03:04:31.673Z,10.96
2019-04-27T03:07:00.297Z,11.01
2019-04-27T03:09:26.992Z,11.03
2019-04-27T03:11:54.273Z,11.02
2019-04-27T03:14:40.523Z,10.99
2019-04-27T03:17:22.842Z,10.98
2019-04-27T03:19:54.509Z,10.93
2019-04-27T03:22:25.874Z,10.91
2019-04-27T03:24:59.757Z,10.73
2019-04-27T03:27:30.130Z,10.72
2019-04-27T03:29:59.670Z,10.66
2019-04-27T03:32:31.335Z,10.74
2019-04-27T03:34:57.094Z,10.81
2019-04-27T03:37:23.799Z,10.83
2019-04-27T03:39:50.831Z,10.85
2019-04-27T03:42:20.497Z,10.80
2019-04-27T03:44:46.622Z,10.55
2019-04-27T03:47:13.392Z,10.40
2019-04-27T03:49:41.507Z,10.50
2019-04-27T03:52:25.573Z,10.59
2019-04-27T03:55:00.212Z,10.57
2019-04-27T03:57:31.561Z,10.43
2019-04-27T04:00:00.232Z,10.39
2019-04-27T04:02:30.298Z,10.39
2019-04-27T04:04:58.996Z,10.28
2019-04-27T04:07:26.690Z,10.27
2019-04-27T04:09:53.437Z,10.23
2019-04-27T04:12:24.938Z,10.26
2019-04-27T04:14:51.665Z,10.23
2019-04-27T04:17:20.505Z,10.20
2019-04-27T04:19:56.823Z,10.26
2019-04-27T04:22:15.984Z,10.26
2019-04-27T04:24:43.947Z,10.29
2019-04-27T04:27:11.033Z,10.25
2019-04-27T04:29:39.501Z,10.24
2019-04-27T04:32:07.283Z,10.26
2019-04-27T04:34:33.947Z,10.24
2019-04-27T04:37:00.715Z,10.24
2019-04-27T04:39:29.685Z,10.11
2019-04-27T04:41:59.696Z,10.12
2019-04-27T04:44:30.217Z,10.10
2019-04-27T04:47:00.374Z,10.13
2019-04-27T04:49:29.576Z,10.10
2019-04-27T04:51:59.262Z,10.20
2019-04-27T04:54:29.702Z,10.27
2019-04-27T04:56:55.734Z,10.33
2019-04-27T04:59:23.633Z,10.22
2019-04-27T05:01:50.311Z,10.32
2019-04-27T05:04:16.942Z,10.25
2019-04-27T05:06:43.562Z,10.25
2019-04-27T05:09:10.493Z,10.33
2019-04-27T05:11:39.636Z,10.40
2019-04-27T05:14:06.918Z,10.50
2019-04-27T05:16:33.541Z,10.51
2019-04-27T05:19:00.187Z,10.63
2019-04-27T05:21:35.603Z,10.75
2019-04-27T05:24:03.887Z,10.58
2019-04-27T05:26:30.619Z,10.47
2019-04-27T05:28:59.138Z,10.74
2019-04-27T05:31:29.234Z,10.98
2019-04-27T05:33:56.398Z,11.03
2019-04-27T05:36:23.031Z,11.13
2019-04-27T05:38:49.950Z,11.29
2019-04-27T05:41:18.694Z,11.40
2019-04-27T05:43:56.532Z,11.52
2019-04-27T05:46:25.061Z,11.62
2019-04-27T05:48:51.700Z,11.65
2019-04-27T05:51:19.727Z,11.71
2019-04-27T05:53:46.617Z,11.73
2019-04-27T05:56:13.298Z,11.80
2019-04-27T05:58:41.739Z,11.85
2019-04-27T06:01:09.589Z,11.87
2019-04-27T06:03:36.982Z,11.91
2019-04-27T06:06:03.576Z,11.94
2019-04-27T06:08:32.337Z,12.06
2019-04-27T06:10:59.331Z,12.16
2019-04-27T06:13:30.791Z,12.17
2019-04-27T06:15:57.008Z,12.34
2019-04-27T06:18:23.705Z,12.37
2019-04-27T06:20:55.563Z,12.41
2019-04-27T06:23:21.024Z,12.48
2019-04-27T06:25:49.212Z,12.46
2019-04-27T06:28:16.105Z,12.39
2019-04-27T06:30:42.811Z,12.44
2019-04-27T06:33:09.540Z,12.54
2019-04-27T06:35:36.320Z,12.64
2019-04-27T06:38:03.158Z,12.87
2019-04-27T06:40:29.871Z,13.01
2019-04-27T06:42:56.591Z,13.13
2019-04-27T06:45:24.242Z,13.16
2019-04-27T06:47:51.305Z,13.14
2019-04-27T06:50:20.581Z,13.15
2019-04-27T06:52:48.950Z,13.33
2019-04-27T06:55:15.848Z,13.56
2019-04-27T06:57:43.354Z,13.91
2019-04-27T07:00:10.300Z,13.96
2019-04-27T07:02:39.040Z,14.17
2019-04-27T07:05:06.425Z,14.27
2019-04-27T07:07:35.049Z,14.61
2019-04-27T07:10:02.161Z,14.78
2019-04-27T07:12:30.879Z,14.90
2019-04-27T07:17:45.978Z,15.31
2019-04-27T07:20:13.387Z,15.61
2019-04-27T07:22:42.910Z,15.91
2019-04-27T07:25:09.538Z,16.14
2019-04-27T07:27:36.158Z,16.33
2019-04-27T07:30:05.376Z,16.33
2019-04-27T07:32:34.324Z,16.63
2019-04-27T07:35:00.928Z,17.03
2019-04-27T07:37:29.275Z,17.28
2019-04-27T07:39:59.188Z,17.46
2019-04-27T07:42:31.615Z,17.70
2019-04-27T07:45:09.369Z,17.72
2019-04-27T07:47:39.333Z,17.90
2019-04-27T07:50:09.630Z,18.06
2019-04-27T07:52:38.700Z,18.13
2019-04-27T07:55:05.510Z,17.79
2019-04-27T07:57:32.297Z,18.28
2019-04-27T07:59:59.633Z,18.49
2019-04-27T08:02:29.137Z,18.78
2019-04-27T08:04:55.961Z,19.02
2019-04-27T08:07:22.593Z,18.94
2019-04-27T08:09:49.753Z,19.06
2019-04-27T08:12:18.556Z,18.97
2019-04-27T08:14:45.607Z,18.62
2019-04-27T08:17:12.245Z,18.51
2019-04-27T08:19:40.414Z,18.69
2019-04-27T08:22:09.601Z,18.90
2019-04-27T08:24:39.587Z,18.98
2019-04-27T08:27:09.407Z,19.07
2019-04-27T08:29:39.361Z,19.25
2019-04-27T08:32:19.586Z,18.79
2019-04-27T08:34:49.643Z,19.24
2019-04-27T08:37:16.409Z,19.86
2019-04-27T08:39:43.063Z,19.85
2019-04-27T08:42:09.708Z,20.16
2019-04-27T08:44:37.235Z,20.23
2019-04-27T08:47:05.154Z,19.82
2019-04-27T08:49:32.187Z,19.35
2019-04-27T08:52:01.709Z,19.84
2019-04-27T08:54:29.313Z,20.20
2019-04-27T08:56:56.645Z,20.61
2019-04-27T08:59:24.312Z,21.08
2019-04-27T09:01:52.037Z,21.57
2019-04-27T09:04:22.490Z,21.51
2019-04-27T09:06:51.150Z,21.60
2019-04-27T09:09:29.548Z,20.99
2019-04-27T09:12:01.149Z,20.40
2019-04-27T09:14:29.606Z,20.01
2019-04-27T09:17:02.658Z,19.65
2019-04-27T09:19:36.307Z,19.41
2019-04-27T09:22:13.452Z,18.91
2019-04-27T09:24:33.307Z,18.03
2019-04-27T09:27:00.474Z,16.69
2019-04-27T09:29:27.143Z,15.88
2019-04-27T09:31:53.915Z,15.03
2019-04-27T09:34:20.567Z,14.44
2019-04-27T09:36:47.257Z,14.25
2019-04-27T09:39:16.303Z,13.92
2019-04-27T09:41:43.132Z,13.70
2019-04-27T09:44:12.022Z,13.44
2019-04-27T09:46:42.006Z,13.23
2019-04-27T09:49:12.146Z,13.04
2019-04-27T09:51:38.654Z,13.21
2019-04-27T09:54:05.900Z,13.23
2019-04-27T09:56:33.081Z,13.32
2019-04-27T09:59:01.001Z,13.36
2019-04-27T10:01:28.909Z,13.57
2019-04-27T10:03:56.639Z,13.73
2019-04-27T10:06:23.498Z,13.78
2019-04-27T10:08:50.925Z,13.91
2019-04-27T10:11:17.571Z,14.05
2019-04-27T10:13:46.528Z,14.15
2019-04-27T10:16:14.825Z,14.40
2019-04-27T10:18:42.258Z,14.44
2019-04-27T10:21:08.978Z,14.54
2019-04-27T10:23:36.514Z,14.89
2019-04-27T10:26:06.251Z,15.52
2019-04-27T10:28:37.255Z,16.16
2019-04-27T10:31:07.031Z,16.56
2019-04-27T10:34:00.514Z,17.24
2019-04-27T10:39:45.883Z,18.43
2019-04-27T10:42:16.675Z,19.07
2019-04-27T10:44:46.196Z,19.42
2019-04-27T10:47:13.294Z,19.79
2019-04-27T10:52:37.860Z,20.02
2019-04-27T10:55:08.496Z,19.77
2019-04-27T10:57:36.981Z,19.79
2019-04-27T11:00:06.828Z,19.68
2019-04-27T11:02:36.041Z,19.89
2019-04-27T11:08:09.282Z,20.52
2019-04-27T11:13:25.782Z,20.80
2019-04-27T11:15:52.856Z,20.88
2019-04-27T11:18:21.238Z,20.80
2019-04-27T11:20:49.646Z,20.80
2019-04-27T11:23:16.759Z,20.59
2019-04-27T11:25:46.796Z,20.09
2019-04-27T11:28:15.664Z,19.99
2019-04-27T11:30:42.733Z,20.44
2019-04-27T11:33:13.611Z,20.17
2019-04-27T11:35:53.659Z,20.42
2019-04-27T11:38:20.659Z,20.76
2019-04-27T11:40:54.525Z,20.17
2019-04-27T11:43:26.027Z,20.73
2019-04-27T11:45:55.978Z,20.58
2019-04-27T11:48:29.834Z,19.93
2019-04-27T11:50:58.981Z,19.33
2019-04-27T11:53:26.219Z,19.49
2019-04-27T11:55:54.252Z,19.19
2019-04-27T11:58:23.753Z,18.42
2019-04-27T12:00:50.541Z,18.87
2019-04-27T12:03:18.150Z,19.48
2019-04-27T12:05:48.151Z,20.09
2019-04-27T12:08:16.192Z,19.47
2019-04-27T12:10:46.435Z,20.22
2019-04-27T12:13:16.789Z,20.88
2019-04-27T12:15:46.545Z,20.18
2019-04-27T12:18:17.884Z,19.71
2019-04-27T12:20:45.767Z,20.19
2019-04-27T12:23:16.756Z,18.91
2019-04-27T12:25:46.171Z,19.64
2019-04-27T12:28:20.352Z,20.52
2019-04-27T12:30:50.192Z,20.45
2019-04-27T12:33:21.542Z,20.45
2019-04-27T12:38:47.106Z,21.34
2019-04-27T12:44:04.372Z,20.90
2019-04-27T12:46:31.038Z,20.51
2019-04-27T12:49:05.948Z,20.64
2019-04-27T12:51:35.602Z,20.57
2019-04-27T12:54:06.011Z,20.74
2019-04-27T12:56:35.667Z,20.91
2019-04-27T12:59:04.338Z,21.07
2019-04-27T13:01:31.434Z,21.15
2019-04-27T13:04:02.731Z,20.90
2019-04-27T13:09:17.755Z,20.33
2019-04-27T13:11:45.930Z,19.53
2019-04-27T13:14:14.188Z,19.57
2019-04-27T13:16:45.709Z,19.53
2019-04-27T13:19:12.658Z,19.86
2019-04-27T13:21:39.303Z,20.09
2019-04-27T13:24:07.032Z,20.08
2019-04-27T13:26:33.822Z,20.02
2019-04-27T13:29:00.488Z,19.77
2019-04-27T13:31:27.147Z,19.68
2019-04-27T13:33:55.629Z,19.77
2019-04-27T13:36:22.287Z,19.60
2019-04-27T13:38:48.958Z,19.38
2019-04-27T13:41:27.475Z,19.72
2019-04-27T13:43:44.124Z,19.99
2019-04-27T13:46:30.588Z,20.07
2019-04-27T13:49:01.740Z,19.46
2019-04-27T13:51:36.275Z,19.63
2019-04-27T13:54:14.583Z,20.19
2019-04-27T13:56:32.121Z,20.27
2019-04-27T13:58:58.789Z,20.36
2019-04-27T14:01:26.542Z,19.23
2019-04-27T14:03:53.147Z,19.33
2019-04-27T14:06:19.824Z,19.34
2019-04-27T14:08:46.439Z,19.26
2019-04-27T14:11:13.035Z,19.11
2019-04-27T14:13:39.673Z,19.38
2019-04-27T14:16:06.280Z,19.32
2019-04-27T14:18:32.869Z,19.34
2019-04-27T14:21:00.574Z,19.48
2019-04-27T14:23:30.051Z,19.47
2019-04-27T14:25:58.510Z,19.41
2019-04-27T14:28:28.992Z,19.45
2019-04-27T14:30:55.962Z,19.17
2019-04-27T14:33:22.856Z,19.21
2019-04-27T14:35:52.305Z,19.11
2019-04-27T14:38:19.187Z,18.92
2019-04-27T14:40:45.875Z,18.96
2019-04-27T14:43:13.239Z,19.10
2019-04-27T14:45:39.841Z,18.95
2019-04-27T14:48:08.141Z,18.95
2019-04-27T14:50:35.392Z,18.82
2019-04-27T14:53:02.317Z,18.78
2019-04-27T14:55:30.178Z,18.63
2019-04-27T14:57:58.869Z,18.57
2019-04-27T15:00:25.566Z,18.33
2019-04-27T15:02:52.201Z,17.99
2019-04-27T15:05:18.867Z,17.55
2019-04-27T15:07:46.773Z,17.05
2019-04-27T15:10:16.233Z,16.76
2019-04-27T15:12:43.521Z,16.46
2019-04-27T15:15:10.347Z,16.00
2019-04-27T15:17:36.948Z,15.39
2019-04-27T15:20:12.528Z,14.96
2019-04-27T15:22:40.339Z,14.86
2019-04-27T15:25:13.595Z,14.72
2019-04-27T15:27:43.346Z,14.54
2019-04-27T15:30:14.424Z,14.63
2019-04-27T15:32:51.763Z,14.33
2019-04-27T15:35:40.641Z,13.69
2019-04-27T15:38:18.771Z,14.14
2019-04-27T15:40:54.323Z,14.77
2019-04-27T15:43:27.316Z,15.26
2019-04-27T15:45:53.403Z,15.41
2019-04-27T15:48:20.516Z,15.54
2019-04-27T15:50:47.178Z,15.55
2019-04-27T15:53:13.807Z,15.55
2019-04-27T15:55:42.308Z,15.46
2019-04-27T15:58:09.895Z,15.32
2019-04-27T16:00:38.352Z,15.32
2019-04-27T16:03:05.044Z,15.28
2019-04-27T16:05:33.376Z,15.29
2019-04-27T16:08:06.135Z,15.37
2019-04-27T16:10:35.375Z,15.51
2019-04-27T16:13:06.450Z,15.50
2019-04-27T16:15:29.934Z,15.52
2019-04-27T16:17:58.486Z,15.38
2019-04-27T16:20:30.057Z,15.12
2019-04-27T16:22:56.703Z,15.06
2019-04-27T16:25:28.265Z,15.17
2019-04-27T16:27:52.666Z,15.11
2019-04-27T16:30:20.649Z,15.05
2019-04-27T16:32:48.054Z,15.08
2019-04-27T16:35:19.628Z,15.09
2019-04-27T16:38:01.618Z,15.10
2019-04-27T16:40:30.130Z,14.92
2019-04-27T16:42:58.481Z,14.85
2019-04-27T16:45:27.179Z,14.88
2019-04-27T16:47:56.537Z,14.77
2019-04-27T16:50:25.502Z,14.83
2019-04-27T16:52:56.872Z,14.74
2019-04-27T16:55:19.882Z,14.77
2019-04-27T16:57:46.711Z,14.82
2019-04-27T17:00:15.771Z,14.84
2019-04-27T17:02:42.485Z,14.89
2019-04-27T17:05:09.505Z,14.89
2019-04-27T17:07:37.550Z,14.89
2019-04-27T17:10:04.746Z,14.81
2019-04-27T17:12:34.803Z,14.89
2019-04-27T17:15:05.873Z,14.89
2019-04-27T17:17:42.731Z,14.92
2019-04-27T17:20:08.605Z,14.88
2019-04-27T17:22:35.230Z,14.85
2019-04-27T17:25:02.035Z,14.82
2019-04-27T17:27:31.750Z,14.89
2019-04-27T17:30:01.666Z,14.70
2019-04-27T17:32:41.141Z,14.71
2019-04-27T17:35:11.986Z,14.64
2019-04-27T17:37:38.238Z,14.67
2019-04-27T17:40:05.175Z,14.65
2019-04-27T17:42:31.774Z,14.67
2019-04-27T17:45:00.463Z,14.65
2019-04-27T17:47:29.964Z,14.57
2019-04-27T17:49:58.369Z,14.45
2019-04-27T17:52:25.082Z,14.47
2019-04-27T17:54:51.764Z,14.51
2019-04-27T17:57:22.264Z,14.45
2019-04-27T17:59:51.377Z,14.29
2019-04-27T18:02:15.402Z,14.23
2019-04-27T18:04:41.984Z,14.14
2019-04-27T18:07:08.998Z,13.99
2019-04-27T18:09:39.889Z,13.89
2019-04-27T18:12:08.141Z,13.82
2019-04-27T18:14:37.059Z,13.84
2019-04-27T18:17:03.742Z,13.75
2019-04-27T18:19:32.856Z,13.58
2019-04-27T18:22:01.323Z,13.40
2019-04-27T18:24:33.767Z,13.41
2019-04-27T18:27:04.484Z,13.21
2019-04-27T18:29:31.338Z,13.28
2019-04-27T18:31:58.266Z,13.26
2019-04-27T18:34:24.999Z,13.28
2019-04-27T18:36:51.630Z,13.22
2019-04-27T18:39:18.348Z,13.21
2019-04-27T18:41:50.540Z,13.12
2019-04-27T18:44:19.122Z,13.12
2019-04-27T18:46:45.984Z,13.02
2019-04-27T18:49:14.405Z,13.07
2019-04-27T18:51:48.319Z,13.07
2019-04-27T18:54:16.196Z,12.99
2019-04-27T18:56:42.819Z,12.95
2019-04-27T18:59:09.503Z,12.89
2019-04-27T19:01:36.105Z,12.87
2019-04-27T19:07:17.619Z,12.75
2019-04-27T19:09:49.423Z,12.73
2019-04-27T19:12:14.622Z,12.74
2019-04-27T19:14:42.376Z,12.75
2019-04-27T19:17:08.963Z,12.71
2019-04-27T19:22:30.497Z,12.65
2019-04-27T19:24:57.129Z,12.58
2019-04-27T19:27:31.078Z,12.54
2019-04-27T19:30:02.679Z,12.52
2019-04-27T19:32:35.704Z,12.35
2019-04-27T19:35:08.260Z,12.17
2019-04-27T19:37:39.806Z,12.14
2019-04-27T19:40:08.513Z,12.12
2019-04-27T19:42:35.191Z,12.13
2019-04-27T19:45:02.285Z,12.15
2019-04-27T19:47:29.918Z,11.99
2019-04-27T19:49:56.756Z,11.78
2019-04-27T19:52:23.299Z,11.68
2019-04-27T19:54:50.212Z,11.67
2019-04-27T19:57:34.985Z,11.70
2019-04-27T19:59:56.132Z,11.80
2019-04-27T20:02:25.102Z,11.79
2019-04-27T20:04:53.598Z,11.50
2019-04-27T20:07:22.417Z,11.33
2019-04-27T20:09:58.359Z,11.33
2019-04-27T20:12:35.877Z,11.39
2019-04-27T20:18:33.656Z,11.36
2019-04-27T20:21:01.296Z,11.41
2019-04-27T20:23:27.872Z,11.40
2019-04-27T20:25:54.967Z,11.45
2019-04-27T20:28:23.130Z,11.41
2019-04-27T20:30:51.893Z,11.42
2019-04-27T20:33:21.079Z,11.46
2019-04-27T20:35:48.691Z,11.42
2019-04-27T20:38:17.387Z,11.37
2019-04-27T20:40:44.095Z,11.33
2019-04-27T20:43:11.146Z,11.31
2019-04-27T20:45:39.228Z,11.26
2019-04-27T20:48:06.319Z,11.22
2019-04-27T20:50:36.367Z,11.14
2019-04-27T20:53:04.948Z,11.11
2019-04-27T20:55:33.406Z,11.06
2019-04-27T20:58:02.930Z,11.04
2019-04-27T21:00:31.848Z,11.00
2019-04-27T21:03:02.425Z,11.00
2019-04-27T21:05:38.143Z,10.98
2019-04-27T21:08:09.260Z,10.94
2019-04-27T21:10:36.123Z,10.87
2019-04-27T21:13:04.467Z,10.82
2019-04-27T21:15:31.563Z,10.77
2019-04-27T21:17:58.501Z,10.80
2019-04-27T21:20:26.638Z,10.78
2019-04-27T21:22:53.581Z,10.77
2019-04-27T21:25:20.460Z,10.74
2019-04-27T21:27:47.197Z,10.65
2019-04-27T21:30:14.795Z,10.65
2019-04-27T21:32:42.717Z,10.63
2019-04-27T21:35:10.854Z,10.61
2019-04-27T21:37:38.228Z,10.57
2019-04-27T21:40:13.033Z,10.55
2019-04-27T21:42:41.650Z,10.52
2019-04-27T21:45:08.615Z,10.46
2019-04-27T21:47:35.220Z,10.45
2019-04-27T21:50:04.358Z,10.37
2019-04-27T21:52:35.243Z,10.33
2019-04-27T21:55:02.349Z,10.31
2019-04-27T21:57:31.104Z,10.23
2019-04-27T21:59:58.005Z,10.23
2019-04-27T22:02:25.188Z,10.21
2019-04-27T22:04:51.955Z,10.15
2019-04-27T22:07:21.589Z,10.13
2019-04-27T22:09:51.879Z,10.15
2019-04-27T22:12:21.250Z,10.18
2019-04-27T22:14:50.890Z,10.15
2019-04-27T22:17:18.555Z,10.00
2019-04-27T22:19:45.481Z,10.00
2019-04-27T22:22:13.993Z,9.96
2019-04-27T22:24:42.859Z,9.92
2019-04-27T22:27:10.357Z,9.95
2019-04-27T22:29:37.620Z,9.90
2019-04-27T22:35:25.004Z,9.95
2019-04-27T22:37:51.805Z,9.93
2019-04-27T22:40:22.187Z,9.88
2019-04-27T22:42:56.855Z,9.86
2019-04-27T22:45:27.241Z,9.79
2019-04-27T22:47:53.939Z,9.71
2019-04-27T22:50:21.136Z,9.67
2019-04-27T22:52:48.215Z,9.66
2019-04-27T22:55:14.994Z,9.61
2019-04-27T22:57:55.911Z,9.56
2019-04-27T23:00:24.593Z,9.56
2019-04-27T23:02:54.146Z,9.57
2019-04-27T23:05:20.996Z,9.57
2019-04-27T23:07:47.941Z,9.63
2019-04-27T23:10:15.627Z,9.57
2019-04-27T23:12:44.240Z,9.59
2019-04-27T23:15:12.995Z,9.58
2019-04-27T23:17:53.858Z,9.49
2019-04-27T23:20:20.871Z,9.49
2019-04-27T23:22:48.557Z,9.43
2019-04-27T23:25:17.166Z,9.39
2019-04-27T23:27:43.783Z,9.32
2019-04-27T23:30:12.016Z,9.29
2019-04-27T23:32:44.982Z,9.29
2019-04-27T23:35:12.899Z,9.31
2019-04-27T23:37:39.822Z,9.27
2019-04-27T23:40:11.006Z,9.22
2019-04-27T23:42:38.288Z,9.31
2019-04-27T23:45:06.820Z,9.30
2019-04-27T23:47:35.573Z,9.32
2019-04-27T23:50:03.559Z,9.30
2019-04-27T23:52:50.610Z,9.27
2019-04-27T23:55:20.876Z,9.28
2019-04-27T23:57:48.441Z,9.25
